Home > Products > Valid Products > TAF

000
FTUS45 KREV 222300
TAFRNO
TAF
KRNO 222320Z 2300/2324 19008KT P6SM BKN200
     FM230200 22005KT P6SM BKN180
     FM232000 24008G16KT P6SM SCT120 OVC160=



000
FTUS45 KREV 221700
TAFRNO
TAF
KRNO 221720Z 2218/2318 VRB02KT P6SM BKN200
     FM222000 19008KT P6SM BKN200
     FM230200 24005KT P6SM BKN180=



000
FTUS45 KREV 221700
TAFRNO
TAF
KRNO 221720Z 2218/2318 VRB02KT P6SM BKN200
     FM222000 19008KT P6SM BKN200
     FM230200 24005KT P6SM BKN180=



000
FTUS45 KREV 221100
TAFRNO
TAF
KRNO 221120Z 2212/2312 VRB02KT P6SM BKN200
     FM222000 19008KT P6SM BKN200
     FM230200 24005KT P6SM BKN180=



000
FTUS45 KREV 220500
TAFRNO
TAF
KRNO 220522Z 2206/2306 VRB04KT P6SM SCT200
     FM221000 VRB03KT P6SM SCT150 BKN200
     FM222000 19008KT P6SM SCT150 BKN200=



000
FTUS45 KREV 220500
TAFRNO
TAF
KRNO 220522Z 2206/2306 VRB04KT P6SM SCT200
     FM221000 VRB03KT P6SM SCT150 BKN200
     FM222000 19008KT P6SM SCT150 BKN200=



000
FTUS45 KREV 212300
TAFRNO
TAF
KRNO 212335Z 2200/2224 36008KT P6SM FEW100 SCT150 BKN200
     FM220300 VRB04KT P6SM SCT150 OVC200=



000
FTUS45 KREV 211700
TAFRNO
TAF
KRNO 211720Z 2118/2218 VRB04KT P6SM FEW120 BKN220
     FM212100 36007KT P6SM SCT200
     FM220300 VRB03KT P6SM SCT150 BKN200=



000
FTUS45 KREV 211100
TAFRNO
TAF
KRNO 211120Z 2112/2212 VRB04KT P6SM FEW120 SCT180
     FM212000 02006KT P6SM BKN180
     FM220200 VRB03KT P6SM SCT180=



000
FTUS45 KREV 211100
TAFRNO
TAF
KRNO 211120Z 2112/2212 VRB04KT P6SM FEW120 SCT180
     FM212000 02006KT P6SM BKN180
     FM220200 VRB03KT P6SM SCT180=



000
FTUS45 KREV 211100
TAFRNO
TAF
KRNO 211120Z 2112/2212 VRB04KT P6SM FEW120 SCT180
     FM212000 02006KT P6SM BKN180
     FM220200 VRB03KT P6SM SCT180=



000
FTUS45 KREV 211100
TAFRNO
TAF
KRNO 211120Z 2112/2212 VRB04KT P6SM FEW120 SCT180
     FM212000 02006KT P6SM BKN180
     FM220200 VRB03KT P6SM SCT180=



000
FTUS45 KREV 210500
TAFRNO
TAF
KRNO 210520Z 2106/2206 28011KT P6SM VCSH SCT040 BKN060
     FM210800 32007KT P6SM SCT070
     FM211400 VRB03KT P6SM FEW100 SCT180
     FM212200 34007KT P6SM BKN150=



000
FTUS45 KREV 210500
TAFRNO
TAF
KRNO 210520Z 2106/2206 28011KT P6SM VCSH SCT040 BKN060
     FM210800 32007KT P6SM SCT070
     FM211400 VRB03KT P6SM FEW100 SCT180
     FM212200 34007KT P6SM BKN150=



000
FTUS45 KREV 210300 AAA
TAFRNO
TAF AMD
KRNO 210306Z 2103/2124 22028G38KT P6SM SCT070 SCT100
     FM210400 26011G18KT P6SM VCSH SCT040 BKN060
     FM210700 32007KT P6SM SCT070
     FM211400 VRB03KT P6SM SCT100 BKN180=



000
FTUS45 KREV 210300 AAA
TAFRNO
TAF AMD
KRNO 210306Z 2103/2124 22028G38KT P6SM SCT070 SCT100
     FM210400 26011G18KT P6SM VCSH SCT040 BKN060
     FM210700 32007KT P6SM SCT070
     FM211400 VRB03KT P6SM SCT100 BKN180=



000
FTUS45 KREV 210300 AAA
TAFRNO
TAF AMD
KRNO 210306Z 2103/2124 22028G38KT P6SM SCT070 SCT100
     FM210400 26011G18KT P6SM VCSH SCT040 BKN060
     FM210700 32007KT P6SM SCT070
     FM211400 VRB03KT P6SM SCT100 BKN180=



000
FTUS45 KREV 202300
TAFRNO
TAF
KRNO 202328Z 2100/2124 22018G28KT P6SM SCT070 SCT100
     FM210400 26011G18KT P6SM VCSH SCT040 BKN060
     FM210700 32007KT P6SM SCT070
     FM211400 VRB03KT P6SM SCT100 BKN180=



000
FTUS45 KREV 202300
TAFRNO
TAF
KRNO 202328Z 2100/2124 22018G28KT P6SM SCT070 SCT100
     FM210400 26011G18KT P6SM VCSH SCT040 BKN060
     FM210700 32007KT P6SM SCT070
     FM211400 VRB03KT P6SM SCT100 BKN180=



000
FTUS45 KREV 201700
TAFRNO
TAF
KRNO 201738Z 2018/2118 20009KT P6SM FEW150
     FM202000 21019G32KT P6SM FEW060 SCT120
     FM210000 25016G28KT P6SM SCT060 SCT100
     FM210400 28011G18KT P6SM VCSH SCT040 BKN060
     FM210700 32007KT P6SM SCT070
     FM211400 VRB03KT P6SM BKN180=



000
FTUS45 KREV 201700
TAFRNO
TAF
KRNO 201738Z 2018/2118 20009KT P6SM FEW150
     FM202000 21019G32KT P6SM FEW060 SCT120
     FM210000 25016G28KT P6SM SCT060 SCT100
     FM210400 28011G18KT P6SM VCSH SCT040 BKN060
     FM210700 32007KT P6SM SCT070
     FM211400 VRB03KT P6SM BKN180=



000
FTUS45 KREV 201100
TAFRNO
TAF
KRNO 201120Z 2012/2112 VRB03KT P6SM FEW200
     FM202000 21019G32KT P6SM FEW060 BKN120
     FM210000 28016G28KT P6SM SCT050 BKN100
     FM210600 30008KT P6SM SCT070=



000
FTUS45 KREV 201100
TAFRNO
TAF
KRNO 201120Z 2012/2112 VRB03KT P6SM FEW200
     FM202000 21019G32KT P6SM FEW060 BKN120
     FM210000 28016G28KT P6SM SCT050 BKN100
     FM210600 30008KT P6SM SCT070=



000
FTUS45 KREV 200500
TAFRNO
TAF
KRNO 200520Z 2006/2106 VRB03KT P6SM FEW200
     FM202100 22015G27KT P6SM FEW060 BKN180
     FM210200 19010G18KT P6SM SCT050 BKN100=



000
FTUS45 KREV 200500
TAFRNO
TAF
KRNO 200520Z 2006/2106 VRB03KT P6SM FEW200
     FM202100 22015G27KT P6SM FEW060 BKN180
     FM210200 19010G18KT P6SM SCT050 BKN100=



    US Dept of Commerce
    National Oceanic and Atmospheric Administration
    National Weather Service
    1325 East West Highway
    Silver Spring, MD 20910
    Page Author: NWS Internet Services Team
Disclaimer
Information Quality
Credits
Glossary
Privacy Policy
Freedom of Information Act (FOIA)
About Us
Career Opportunities